Time;durP1;ratioP1;P1;durP2;ratioP2;P2;SDS_P1;SDS_P2;PMS_P1;PMS_P2;Temp;Humidity;BMP_temperature;BMP_pressure;BME280_temperature;BME280_humidity;BME280_pressure;Samples;Min_cycle;Max_cycle;Signal;HPM_P1;HPM_P2
2022/01/10 00:02:07;;;;;;;42.73;24.00;;;;;;;;;;6156982;23;19997;-90
2022/01/10 00:04:32;;;;;;;33.47;23.23;;;;;;;;;;6156323;23;20233;-90
2022/01/10 00:06:58;;;;;;;35.80;22.20;;;;;;;;;;6157301;23;20369;-90
2022/01/10 00:09:23;;;;;;;29.52;21.48;;;;;;;;;;6157105;23;20005;-89
2022/01/10 00:11:48;;;;;;;31.02;21.42;;;;;;;;;;6156983;23;20081;-90
2022/01/10 00:14:13;;;;;;;28.53;21.13;;;;;;;;;;6158995;23;19997;-90
2022/01/10 00:16:39;;;;;;;51.65;26.23;;;;;;;;;;6183622;23;20260;-90
2022/01/10 00:19:04;;;;;;;27.75;20.42;;;;;;;;;;6156660;23;20017;-90
2022/01/10 00:21:29;;;;;;;22.60;18.83;;;;;;;;;;6156802;23;20444;-90
2022/01/10 00:23:55;;;;;;;29.70;21.05;;;;;;;;;;6156471;23;20008;-90
2022/01/10 00:26:20;;;;;;;28.93;20.77;;;;;;;;;;6156496;23;20005;-89
2022/01/10 00:28:45;;;;;;;21.77;17.38;;;;;;;;;;6183039;23;20225;-90
2022/01/10 00:31:10;;;;;;;27.00;19.27;;;;;;;;;;6164794;23;20025;-90
2022/01/10 00:33:35;;;;;;;26.77;19.38;;;;;;;;;;6172411;23;20330;-90
2022/01/10 00:36:01;;;;;;;26.30;19.35;;;;;;;;;;6159832;23;20374;-89
2022/01/10 00:38:26;;;;;;;23.73;17.98;;;;;;;;;;6158556;23;20449;-90
2022/01/10 00:40:51;;;;;;;31.15;20.92;;;;;;;;;;6186484;23;20028;-90
2022/01/10 00:43:19;;;;;;;38.72;21.58;;;;;;;;;;6186253;23;20052;-90
2022/01/10 00:45:45;;;;;;;51.45;25.13;;;;;;;;;;6160177;23;20008;-89
2022/01/10 00:48:10;;;;;;;45.90;24.85;;;;;;;;;;6186698;23;20004;-90
2022/01/10 00:50:35;;;;;;;27.10;19.92;;;;;;;;;;6184757;23;20796;-90
2022/01/10 00:53:01;;;;;;;27.77;20.63;;;;;;;;;;6156475;23;20001;-90
2022/01/10 00:55:28;;;;;;;33.15;22.30;;;;;;;;;;6156320;23;20547;-90
2022/01/10 00:57:54;;;;;;;28.02;20.13;;;;;;;;;;6156028;23;20071;-90
2022/01/10 01:00:19;;;;;;;25.38;19.02;;;;;;;;;;6182907;23;19997;-90
2022/01/10 01:02:44;;;;;;;34.90;22.35;;;;;;;;;;6156744;23;20001;-89
2022/01/10 01:05:12;;;;;;;23.27;18.85;;;;;;;;;;6183911;23;20409;-90
2022/01/10 01:07:37;;;;;;;32.22;22.10;;;;;;;;;;6183036;23;20007;-90
2022/01/10 01:12:50;;;;;;;28.90;21.23;;;;;;;;;;6193513;23;20020;-90
2022/01/10 01:15:30;;;;;;;24.45;19.45;;;;;;;;;;6182963;23;20067;-90
2022/01/10 01:18:11;;;;;;;36.97;26.17;;;;;;;;;;6182890;23;20044;-90
2022/01/10 01:25:51;;;;;;;30.60;22.73;;;;;;;;;;6182777;23;20096;-90
2022/01/10 01:28:16;;;;;;;34.67;24.00;;;;;;;;;;6182598;23;20025;-90
2022/01/10 01:30:42;;;;;;;49.65;27.38;;;;;;;;;;6182538;23;20311;-90
2022/01/10 01:33:08;;;;;;;35.97;23.25;;;;;;;;;;6158458;23;20080;-90
2022/01/10 01:35:35;;;;;;;38.15;25.80;;;;;;;;;;6184372;23;20047;-90
2022/01/10 01:38:00;;;;;;;34.38;24.17;;;;;;;;;;6156438;23;20028;-89
2022/01/10 01:40:29;;;;;;;51.53;28.40;;;;;;;;;;6182482;23;20001;-89
2022/01/10 01:42:54;;;;;;;33.33;24.27;;;;;;;;;;6156578;23;20335;-90
2022/01/10 01:45:34;;;;;;;36.03;24.13;;;;;;;;;;6196001;23;20024;-90
2022/01/10 01:47:59;;;;;;;36.78;23.92;;;;;;;;;;6160863;23;19997;-89
2022/01/10 01:50:24;;;;;;;34.00;24.40;;;;;;;;;;6155826;23;20013;-90
2022/01/10 01:52:49;;;;;;;31.47;22.80;;;;;;;;;;6155639;23;20248;-89
2022/01/10 01:55:14;;;;;;;45.30;26.57;;;;;;;;;;6184924;23;20307;-90
2022/01/10 01:57:40;;;;;;;60.20;29.50;;;;;;;;;;6182470;23;20224;-90
2022/01/10 02:00:06;;;;;;;47.00;27.70;;;;;;;;;;6155796;23;20024;-89
2022/01/10 02:02:31;;;;;;;44.75;27.98;;;;;;;;;;6182351;23;20688;-90
2022/01/10 02:04:57;;;;;;;31.92;23.80;;;;;;;;;;6155685;23;20434;-90
2022/01/10 02:07:22;;;;;;;50.20;29.85;;;;;;;;;;6155729;23;20009;-89
2022/01/10 02:09:47;;;;;;;46.03;26.50;;;;;;;;;;6182749;23;20013;-90
2022/01/10 02:12:12;;;;;;;43.00;28.35;;;;;;;;;;6182475;23;19997;-90
2022/01/10 02:14:40;;;;;;;39.42;27.23;;;;;;;;;;6155857;23;19997;-90
2022/01/10 02:17:05;;;;;;;52.90;30.38;;;;;;;;;;6155419;23;20430;-89
2022/01/10 02:19:30;;;;;;;33.95;25.95;;;;;;;;;;6155953;23;20019;-89
2022/01/10 02:21:56;;;;;;;44.38;28.10;;;;;;;;;;6156021;23;20004;-90
2022/01/10 02:24:23;;;;;;;44.65;28.67;;;;;;;;;;6182252;23;20827;-89
2022/01/10 02:26:49;;;;;;;44.47;28.45;;;;;;;;;;6186972;23;20055;-89
2022/01/10 02:29:14;;;;;;;39.10;27.40;;;;;;;;;;6156956;23;20009;-90
2022/01/10 02:31:40;;;;;;;50.45;28.67;;;;;;;;;;6156360;23;20001;-89
2022/01/10 02:34:05;;;;;;;66.88;32.92;;;;;;;;;;6156109;23;20036;-90
2022/01/10 02:36:31;;;;;;;43.38;27.70;;;;;;;;;;6156161;23;20051;-90
2022/01/10 02:38:58;;;;;;;52.20;30.55;;;;;;;;;;6182969;23;20005;-90
2022/01/10 02:41:28;;;;;;;51.20;29.60;;;;;;;;;;6158777;23;20009;-89
2022/01/10 02:43:54;;;;;;;57.33;31.38;;;;;;;;;;6185548;23;20378;-89
2022/01/10 02:46:20;;;;;;;40.45;26.70;;;;;;;;;;6185556;23;20634;-89
2022/01/10 02:48:45;;;;;;;41.92;27.45;;;;;;;;;;6185280;23;19996;-89
2022/01/10 02:51:11;;;;;;;47.17;29.38;;;;;;;;;;6185438;23;20737;-90
2022/01/10 02:53:36;;;;;;;46.45;29.98;;;;;;;;;;6183914;23;19997;-90
2022/01/10 02:56:01;;;;;;;46.22;30.08;;;;;;;;;;6185879;23;20024;-89
2022/01/10 02:58:27;;;;;;;60.90;34.20;;;;;;;;;;6185554;23;20035;-89
2022/01/10 03:00:52;;;;;;;57.70;31.20;;;;;;;;;;6185828;23;20027;-90
2022/01/10 03:03:17;;;;;;;40.38;27.20;;;;;;;;;;6159179;23;20001;-90
2022/01/10 03:05:42;;;;;;;50.88;29.83;;;;;;;;;;6160260;23;20017;-90
2022/01/10 03:08:08;;;;;;;47.78;28.38;;;;;;;;;;6203587;23;20020;-90
2022/01/10 03:10:33;;;;;;;54.92;30.58;;;;;;;;;;6163482;23;20048;-90
2022/01/10 03:12:59;;;;;;;42.88;26.80;;;;;;;;;;6187373;23;20440;-89
2022/01/10 03:15:24;;;;;;;50.45;29.88;;;;;;;;;;6187246;23;20051;-89
2022/01/10 03:17:49;;;;;;;48.25;28.52;;;;;;;;;;6159785;23;20088;-90
2022/01/10 03:20:15;;;;;;;53.15;31.08;;;;;;;;;;6158067;23;20017;-90
2022/01/10 03:22:40;;;;;;;41.05;27.73;;;;;;;;;;6184175;23;20032;-90
2022/01/10 03:25:05;;;;;;;55.05;30.73;;;;;;;;;;6183693;23;20001;-90
2022/01/10 03:27:31;;;;;;;55.17;30.73;;;;;;;;;;6182073;23;20005;-89
2022/01/10 03:29:56;;;;;;;41.30;27.35;;;;;;;;;;6184242;23;19997;-90
2022/01/10 03:32:21;;;;;;;44.22;26.55;;;;;;;;;;6157338;23;20005;-90
2022/01/10 03:34:47;;;;;;;50.70;29.05;;;;;;;;;;6183288;23;20024;-91
2022/01/10 03:37:12;;;;;;;52.03;28.95;;;;;;;;;;6157055;23;20005;-90
2022/01/10 03:39:37;;;;;;;47.15;26.90;;;;;;;;;;6183431;23;20087;-90
2022/01/10 03:42:03;;;;;;;39.95;25.60;;;;;;;;;;6183511;23;20025;-90
2022/01/10 03:44:29;;;;;;;43.08;26.52;;;;;;;;;;6164894;23;19984;-90
2022/01/10 03:46:56;;;;;;;48.30;27.52;;;;;;;;;;6172868;23;20009;-90
2022/01/10 03:49:21;;;;;;;40.80;25.60;;;;;;;;;;6184731;23;20452;-90
2022/01/10 03:51:46;;;;;;;47.70;28.38;;;;;;;;;;6156974;23;20171;-89
2022/01/10 03:54:11;;;;;;;44.17;27.65;;;;;;;;;;6183367;23;20005;-89
2022/01/10 03:56:37;;;;;;;49.30;28.63;;;;;;;;;;6157165;23;20059;-89
2022/01/10 03:59:04;;;;;;;45.20;28.37;;;;;;;;;;6183260;23;20656;-89
2022/01/10 04:01:29;;;;;;;45.42;28.98;;;;;;;;;;6181446;23;20324;-89
2022/01/10 04:03:54;;;;;;;52.60;28.58;;;;;;;;;;6183518;23;20040;-89
2022/01/10 04:06:20;;;;;;;47.50;27.90;;;;;;;;;;6156777;23;20024;-89
2022/01/10 04:08:45;;;;;;;47.65;28.30;;;;;;;;;;6183283;23;19997;-89
2022/01/10 04:11:10;;;;;;;50.27;28.47;;;;;;;;;;6157069;23;20005;-89
2022/01/10 04:13:35;;;;;;;50.33;30.08;;;;;;;;;;6183493;23;20646;-89
2022/01/10 04:16:01;;;;;;;61.70;32.28;;;;;;;;;;6183305;23;20001;-89
2022/01/10 04:18:26;;;;;;;63.55;34.08;;;;;;;;;;6182678;23;20013;-90
2022/01/10 04:20:51;;;;;;;66.13;34.33;;;;;;;;;;6194504;23;20028;-90
2022/01/10 04:23:17;;;;;;;52.87;32.17;;;;;;;;;;6156575;23;20009;-90
2022/01/10 04:25:42;;;;;;;53.53;32.15;;;;;;;;;;6156410;23;20776;-89
2022/01/10 04:28:07;;;;;;;57.38;33.65;;;;;;;;;;6156371;23;19997;-89
2022/01/10 04:30:32;;;;;;;59.60;32.23;;;;;;;;;;6156426;23;19997;-89
2022/01/10 04:32:59;;;;;;;55.17;32.05;;;;;;;;;;6183318;23;20745;-90
2022/01/10 04:35:25;;;;;;;53.70;32.17;;;;;;;;;;6156239;23;20001;-89
2022/01/10 04:37:50;;;;;;;74.45;39.10;;;;;;;;;;6157380;23;20001;-89
2022/01/10 04:40:15;;;;;;;65.13;33.70;;;;;;;;;;6182945;23;20334;-89
2022/01/10 04:42:41;;;;;;;84.45;38.00;;;;;;;;;;6182892;23;20110;-89
2022/01/10 04:45:06;;;;;;;64.85;35.85;;;;;;;;;;6156625;23;20001;-89
2022/01/10 04:47:31;;;;;;;65.93;36.63;;;;;;;;;;6182922;23;20009;-89
2022/01/10 04:52:22;;;;;;;68.15;37.35;;;;;;;;;;6183786;23;20401;-89
2022/01/10 04:54:48;;;;;;;58.63;34.70;;;;;;;;;;6183142;23;20005;-89
2022/01/10 04:57:13;;;;;;;71.10;38.80;;;;;;;;;;6184116;23;20064;-90
2022/01/10 04:59:38;;;;;;;48.85;31.40;;;;;;;;;;6186828;23;20263;-89
2022/01/10 05:02:03;;;;;;;59.50;33.70;;;;;;;;;;6183962;23;20437;-90
2022/01/10 05:04:29;;;;;;;62.85;36.95;;;;;;;;;;6155930;23;20429;-89
2022/01/10 05:06:54;;;;;;;65.10;36.97;;;;;;;;;;6183535;23;20007;-90
2022/01/10 05:09:19;;;;;;;71.82;39.55;;;;;;;;;;6156175;23;20005;-90
2022/01/10 05:11:45;;;;;;;64.43;37.63;;;;;;;;;;6182965;23;20044;-89
2022/01/10 05:14:11;;;;;;;66.63;37.95;;;;;;;;;;6182505;23;20080;-90
2022/01/10 05:16:36;;;;;;;67.65;40.00;;;;;;;;;;6182656;23;20028;-90
2022/01/10 05:19:02;;;;;;;74.07;40.13;;;;;;;;;;6155773;23;20438;-90
2022/01/10 05:21:27;;;;;;;78.65;41.75;;;;;;;;;;6182573;23;20058;-89
2022/01/10 05:23:52;;;;;;;77.32;42.60;;;;;;;;;;6182975;23;20005;-89
2022/01/10 05:26:18;;;;;;;75.35;43.22;;;;;;;;;;6182854;23;20008;-90
2022/01/10 05:28:43;;;;;;;80.38;43.83;;;;;;;;;;6157910;23;20008;-89
2022/01/10 05:31:08;;;;;;;80.95;45.15;;;;;;;;;;6157974;23;20051;-90
2022/01/10 05:33:33;;;;;;;69.22;40.85;;;;;;;;;;6156633;23;20001;-89
2022/01/10 05:35:59;;;;;;;85.05;46.05;;;;;;;;;;6156619;23;20115;-90
2022/01/10 05:38:24;;;;;;;79.75;43.10;;;;;;;;;;6158175;23;20031;-90
2022/01/10 05:40:49;;;;;;;75.00;42.90;;;;;;;;;;6191417;23;20433;-90
2022/01/10 05:43:14;;;;;;;73.95;43.75;;;;;;;;;;6159199;23;20001;-89
2022/01/10 05:45:45;;;;;;;69.30;43.03;;;;;;;;;;6186112;23;20522;-88
2022/01/10 05:48:14;;;;;;;86.35;48.88;;;;;;;;;;6185272;23;20549;-89
2022/01/10 05:50:42;;;;;;;76.40;44.75;;;;;;;;;;6185565;23;20068;-89
2022/01/10 05:53:08;;;;;;;73.43;45.42;;;;;;;;;;6183471;23;20005;-88
2022/01/10 05:55:35;;;;;;;83.93;46.58;;;;;;;;;;6159098;23;20025;-88
2022/01/10 05:58:00;;;;;;;81.00;45.70;;;;;;;;;;6158161;23;20100;-89
2022/01/10 06:00:26;;;;;;;85.10;47.00;;;;;;;;;;6185139;23;20028;-88
2022/01/10 06:02:51;;;;;;;67.60;43.10;;;;;;;;;;6184940;23;20024;-88
2022/01/10 06:05:17;;;;;;;85.05;47.85;;;;;;;;;;6158950;23;20017;-90
2022/01/10 06:07:44;;;;;;;75.40;44.47;;;;;;;;;;6159095;23;20002;-90
2022/01/10 06:10:09;;;;;;;86.10;48.85;;;;;;;;;;6159771;23;20004;-90
2022/01/10 06:12:34;;;;;;;78.13;45.33;;;;;;;;;;6185857;23;20001;-90
2022/01/10 06:14:59;;;;;;;82.30;45.40;;;;;;;;;;6185680;23;20060;-90
2022/01/10 06:17:25;;;;;;;86.38;46.50;;;;;;;;;;6159606;23;19993;-90
2022/01/10 06:19:50;;;;;;;73.37;43.33;;;;;;;;;;6185730;23;20444;-90
2022/01/10 06:22:15;;;;;;;93.65;48.13;;;;;;;;;;6185700;23;20244;-90
2022/01/10 06:24:41;;;;;;;81.28;45.17;;;;;;;;;;6159263;23;20084;-90
2022/01/10 06:27:06;;;;;;;92.50;45.80;;;;;;;;;;6159614;23;20059;-90
2022/01/10 06:29:31;;;;;;;72.82;43.90;;;;;;;;;;6185722;23;19997;-90
2022/01/10 06:31:56;;;;;;;96.75;48.65;;;;;;;;;;6185794;23;19989;-90
2022/01/10 06:34:22;;;;;;;87.22;45.42;;;;;;;;;;6159349;23;20005;-90
2022/01/10 06:36:47;;;;;;;75.05;43.97;;;;;;;;;;6185807;23;19993;-90
2022/01/10 06:39:12;;;;;;;86.90;45.92;;;;;;;;;;6159213;23;20005;-91
2022/01/10 06:41:38;;;;;;;83.35;45.45;;;;;;;;;;6158230;23;20005;-91
2022/01/10 06:44:03;;;;;;;94.70;46.50;;;;;;;;;;6157950;23;20397;-90
2022/01/10 06:46:28;;;;;;;81.88;46.33;;;;;;;;;;6157816;23;20012;-91
2022/01/10 06:48:53;;;;;;;89.70;47.97;;;;;;;;;;6184042;23;20062;-91
2022/01/10 06:51:19;;;;;;;103.97;50.55;;;;;;;;;;6157622;23;20008;-91
2022/01/10 20:12:54;;;;;;;76.43;46.70;;;;;;;;;;6173686;23;20039;-90
2022/01/10 20:15:20;;;;;;;79.28;47.08;;;;;;;;;;6127398;23;20023;-91
2022/01/10 20:17:45;;;;;;;70.93;43.65;;;;;;;;;;6128036;23;20405;-90
2022/01/10 20:20:10;;;;;;;78.05;46.80;;;;;;;;;;6154097;23;20350;-91
2022/01/10 20:22:38;;;;;;;74.45;46.97;;;;;;;;;;6128883;23;20434;-91
2022/01/10 20:25:04;;;;;;;72.85;45.22;;;;;;;;;;6153295;23;20009;-91
2022/01/10 20:27:29;;;;;;;81.70;49.55;;;;;;;;;;6153486;23;20008;-91
2022/01/10 20:29:54;;;;;;;72.63;46.17;;;;;;;;;;6154782;23;20303;-90
2022/01/10 20:32:19;;;;;;;76.53;47.93;;;;;;;;;;6154602;23;20224;-91
2022/01/10 20:34:44;;;;;;;83.95;49.42;;;;;;;;;;6154413;23;20284;-91
2022/01/10 20:37:10;;;;;;;79.07;48.75;;;;;;;;;;6155817;23;20002;-91
2022/01/10 20:39:35;;;;;;;83.17;50.83;;;;;;;;;;6128527;23;20010;-91
2022/01/10 20:42:00;;;;;;;76.43;46.33;;;;;;;;;;6160980;23;20296;-91
2022/01/10 20:44:25;;;;;;;81.82;48.20;;;;;;;;;;6128735;23;20006;-91
2022/01/10 20:46:51;;;;;;;79.43;47.33;;;;;;;;;;6155284;23;20001;-91
2022/01/10 20:49:16;;;;;;;82.07;49.83;;;;;;;;;;6152745;23;20444;-91
2022/01/10 20:51:42;;;;;;;77.93;47.73;;;;;;;;;;6127540;23;20343;-91
2022/01/10 20:54:09;;;;;;;78.82;48.10;;;;;;;;;;6152473;23;20225;-91
2022/01/10 20:56:35;;;;;;;81.82;48.13;;;;;;;;;;6151911;23;20001;-91
2022/01/10 20:59:00;;;;;;;81.10;47.45;;;;;;;;;;6129188;23;20326;-90
2022/01/10 21:01:25;;;;;;;76.82;46.28;;;;;;;;;;6154348;23;20005;-91
2022/01/10 21:03:51;;;;;;;75.75;46.65;;;;;;;;;;6152476;23;20037;-91
2022/01/10 21:06:16;;;;;;;74.28;46.05;;;;;;;;;;6153008;23;20427;-91
2022/01/10 21:08:43;;;;;;;75.72;47.00;;;;;;;;;;6152315;23;20001;-91
2022/01/10 21:11:08;;;;;;;78.80;47.65;;;;;;;;;;6154375;23;20001;-91
2022/01/10 21:13:34;;;;;;;78.53;47.53;;;;;;;;;;6157260;23;20009;-90
2022/01/10 21:15:59;;;;;;;75.97;47.10;;;;;;;;;;6159673;23;20489;-91
2022/01/10 21:18:24;;;;;;;73.88;46.67;;;;;;;;;;6128988;23;20006;-91
2022/01/10 21:20:53;;;;;;;77.72;46.47;;;;;;;;;;6152211;23;20384;-90
2022/01/10 21:23:19;;;;;;;79.18;48.15;;;;;;;;;;6151910;23;19998;-91
2022/01/10 21:25:45;;;;;;;75.00;44.85;;;;;;;;;;6151782;23;20452;-91
2022/01/10 21:28:14;;;;;;;78.28;45.35;;;;;;;;;;6152142;23;20009;-91
2022/01/10 21:30:39;;;;;;;77.13;46.00;;;;;;;;;;6152894;23;20076;-91
2022/01/10 21:33:04;;;;;;;87.90;48.83;;;;;;;;;;6154852;23;20354;-91
2022/01/10 21:35:30;;;;;;;81.72;47.55;;;;;;;;;;6156214;23;19993;-90
2022/01/10 21:37:55;;;;;;;87.22;49.85;;;;;;;;;;6156361;23;20121;-91
2022/01/10 21:40:21;;;;;;;81.00;47.60;;;;;;;;;;6130135;23;20009;-91
2022/01/10 21:42:48;;;;;;;77.90;46.65;;;;;;;;;;6154839;23;20060;-90
2022/01/10 21:45:13;;;;;;;84.88;50.58;;;;;;;;;;6156195;23;20008;-91
2022/01/10 21:47:39;;;;;;;82.00;49.00;;;;;;;;;;6155892;23;20661;-91
2022/01/10 21:50:05;;;;;;;84.45;48.35;;;;;;;;;;6157387;23;19998;-91
2022/01/10 21:52:31;;;;;;;85.70;49.85;;;;;;;;;;6153484;23;20615;-91
2022/01/10 21:54:56;;;;;;;86.65;50.78;;;;;;;;;;6153266;23;20012;-91
2022/01/10 21:57:21;;;;;;;84.45;50.10;;;;;;;;;;6154118;23;20005;-91
2022/01/10 21:59:46;;;;;;;84.60;50.50;;;;;;;;;;6154293;23;20014;-90
2022/01/10 22:02:12;;;;;;;92.93;53.03;;;;;;;;;;6154372;23;20330;-91
2022/01/10 22:04:37;;;;;;;94.38;53.42;;;;;;;;;;6154763;23;20445;-91
2022/01/10 22:07:02;;;;;;;99.65;54.88;;;;;;;;;;6154323;23;19998;-91
2022/01/10 22:09:27;;;;;;;90.60;53.20;;;;;;;;;;6153076;23;20036;-90
2022/01/10 22:11:53;;;;;;;93.00;55.60;;;;;;;;;;6154061;23;20005;-91
2022/01/10 22:14:19;;;;;;;91.00;54.60;;;;;;;;;;6154839;23;20257;-91
2022/01/10 22:16:44;;;;;;;93.32;53.92;;;;;;;;;;6154623;23;20000;-90
2022/01/10 22:19:09;;;;;;;99.37;56.37;;;;;;;;;;6155735;23;20144;-91
2022/01/10 22:21:36;;;;;;;87.85;52.45;;;;;;;;;;6153407;23;20232;-91
2022/01/10 22:24:01;;;;;;;99.35;56.20;;;;;;;;;;6159175;23;20005;-90
2022/01/10 22:26:28;;;;;;;93.72;56.55;;;;;;;;;;6154351;23;20375;-90
2022/01/10 22:28:53;;;;;;;93.40;55.58;;;;;;;;;;6128684;23;20064;-90
2022/01/10 22:31:18;;;;;;;100.28;57.58;;;;;;;;;;6153765;23;20420;-91
2022/01/10 22:33:44;;;;;;;97.60;55.45;;;;;;;;;;6153177;23;20005;-90
2022/01/10 22:36:10;;;;;;;103.22;56.38;;;;;;;;;;6153412;23;20008;-91
2022/01/10 22:38:35;;;;;;;105.28;57.38;;;;;;;;;;6155213;23;19998;-90
2022/01/10 22:41:00;;;;;;;102.40;59.60;;;;;;;;;;6155103;23;20001;-91
2022/01/10 22:43:26;;;;;;;105.32;60.42;;;;;;;;;;6155930;23;20474;-90
2022/01/10 22:45:53;;;;;;;111.82;61.85;;;;;;;;;;6153619;23;20013;-91
2022/01/10 22:48:18;;;;;;;113.68;64.20;;;;;;;;;;6154868;23;20445;-90
2022/01/10 22:50:44;;;;;;;109.40;62.10;;;;;;;;;;6154555;23;19997;-90
2022/01/10 22:53:09;;;;;;;108.10;64.15;;;;;;;;;;6155225;23;20016;-91
2022/01/10 22:55:34;;;;;;;111.47;62.97;;;;;;;;;;6155904;23;19997;-90
2022/01/10 22:57:59;;;;;;;108.03;63.60;;;;;;;;;;6154380;23;19997;-91
2022/01/10 23:00:28;;;;;;;128.30;65.45;;;;;;;;;;6155308;23;20422;-91
2022/01/10 23:02:54;;;;;;;113.35;64.85;;;;;;;;;;6154776;23;20074;-90
2022/01/10 23:05:19;;;;;;;112.57;61.03;;;;;;;;;;6153098;23;20448;-91
2022/01/10 23:07:45;;;;;;;131.20;66.78;;;;;;;;;;6154782;23;20080;-90
2022/01/10 23:10:11;;;;;;;106.13;59.65;;;;;;;;;;6153032;23;20012;-92
2022/01/10 23:12:36;;;;;;;114.78;62.08;;;;;;;;;;6153878;23;19997;-91
2022/01/10 23:15:02;;;;;;;100.90;55.80;;;;;;;;;;6156009;23;20026;-91
2022/01/10 23:17:27;;;;;;;105.93;57.42;;;;;;;;;;6156007;23;19997;-91
2022/01/10 23:19:52;;;;;;;107.47;58.92;;;;;;;;;;6155860;23;20037;-91
2022/01/10 23:22:18;;;;;;;109.15;58.83;;;;;;;;;;6157484;23;20296;-91
2022/01/10 23:24:43;;;;;;;100.03;56.05;;;;;;;;;;6160576;23;20081;-91
2022/01/10 23:27:08;;;;;;;108.75;58.15;;;;;;;;;;6156379;23;19997;-91
2022/01/10 23:29:33;;;;;;;95.07;52.22;;;;;;;;;;6130614;23;19993;-91
2022/01/10 23:31:59;;;;;;;101.25;54.63;;;;;;;;;;6154023;23;20064;-91
2022/01/10 23:34:24;;;;;;;97.85;53.72;;;;;;;;;;6152548;23;20044;-91
2022/01/10 23:36:49;;;;;;;100.85;55.50;;;;;;;;;;6152637;23;20084;-91
2022/01/10 23:39:14;;;;;;;98.00;51.50;;;;;;;;;;6155417;23;20014;-91
2022/01/10 23:41:40;;;;;;;91.82;51.85;;;;;;;;;;6157546;23;20029;-91
2022/01/10 23:44:05;;;;;;;95.43;49.60;;;;;;;;;;6132970;23;20029;-91
2022/01/10 23:46:32;;;;;;;85.90;46.70;;;;;;;;;;6152596;23;20108;-91
2022/01/10 23:48:57;;;;;;;89.75;47.60;;;;;;;;;;6154215;23;20409;-91
2022/01/10 23:51:26;;;;;;;93.18;48.63;;;;;;;;;;6152058;23;20005;-91
2022/01/10 23:53:53;;;;;;;80.18;44.53;;;;;;;;;;6153994;23;20009;-91
2022/01/10 23:56:19;;;;;;;87.25;46.50;;;;;;;;;;6152483;23;20002;-91
2022/01/10 23:58:44;;;;;;;78.88;42.55;;;;;;;;;;6152275;23;20006;-91
